createdAt,value
2022-10-28T00:01:03.979Z,17.70
2022-10-28T00:03:30.816Z,17.80
2022-10-28T00:06:05.217Z,17.40
2022-10-28T00:08:32.618Z,17.70
2022-10-28T00:11:09.687Z,17.70
2022-10-28T00:13:37.218Z,17.70
2022-10-28T00:16:11.135Z,18.80
2022-10-28T00:18:38.296Z,17.70
2022-10-28T00:21:10.119Z,17.70
2022-10-28T00:23:36.929Z,17.70
2022-10-28T00:26:15.258Z,17.80
2022-10-28T00:28:43.708Z,17.70
2022-10-28T00:31:12.022Z,17.70
2022-10-28T00:33:38.694Z,17.70
2022-10-28T00:36:17.454Z,17.70
2022-10-28T00:38:45.960Z,17.60
2022-10-28T00:41:15.373Z,17.60
2022-10-28T00:43:43.415Z,17.60
2022-10-28T00:46:38.676Z,17.60
2022-10-28T00:49:22.522Z,17.60
2022-10-28T00:51:53.956Z,18.60
2022-10-28T00:54:21.123Z,17.60
2022-10-28T00:56:50.983Z,17.90
2022-10-28T00:59:24.941Z,18.30
2022-10-28T01:01:52.062Z,17.60
2022-10-28T01:04:19.371Z,17.60
2022-10-28T01:06:46.859Z,17.50
2022-10-28T01:09:13.700Z,17.50
2022-10-28T01:12:09.784Z,17.50
2022-10-28T01:14:42.337Z,17.50
2022-10-28T01:17:27.571Z,17.50
2022-10-28T01:20:03.740Z,17.40
2022-10-28T01:22:43.061Z,17.50
2022-10-28T01:25:45.521Z,17.50
2022-10-28T01:28:14.074Z,17.50
2022-10-28T01:31:00.972Z,17.50
2022-10-28T01:33:36.445Z,17.80
2022-10-28T01:36:09.705Z,17.40
2022-10-28T01:38:47.310Z,17.30
2022-10-28T01:41:37.699Z,17.40
2022-10-28T01:44:25.062Z,17.40
2022-10-28T01:47:11.926Z,17.40
2022-10-28T01:49:42.577Z,17.30
2022-10-28T01:52:14.446Z,17.40
2022-10-28T01:54:43.573Z,17.30
2022-10-28T01:57:12.744Z,17.30
2022-10-28T01:59:40.118Z,17.40
2022-10-28T02:02:06.917Z,17.90
2022-10-28T02:04:33.617Z,17.30
2022-10-28T02:07:01.030Z,17.30
2022-10-28T02:09:52.623Z,17.30
2022-10-28T02:12:39.507Z,17.30
2022-10-28T02:15:20.962Z,17.30
2022-10-28T02:17:53.832Z,17.30
2022-10-28T02:20:39.563Z,17.20
2022-10-28T02:23:27.819Z,17.20
2022-10-28T02:26:14.484Z,17.20
2022-10-28T02:28:58.770Z,17.20
2022-10-28T02:31:30.706Z,17.20
2022-10-28T02:34:09.510Z,17.10
2022-10-28T02:36:39.299Z,18.10
2022-10-28T02:39:07.028Z,17.10
2022-10-28T02:41:39.716Z,18.00
2022-10-28T02:44:17.793Z,17.10
2022-10-28T02:46:47.398Z,17.00
2022-10-28T02:49:15.281Z,17.00
2022-10-28T02:51:48.694Z,17.00
2022-10-28T02:54:18.566Z,17.00
2022-10-28T02:56:53.046Z,17.00
2022-10-28T02:59:19.893Z,17.60
2022-10-28T03:01:46.636Z,17.70
2022-10-28T03:04:13.408Z,17.00
2022-10-28T03:06:40.066Z,16.90
2022-10-28T03:09:06.871Z,16.90
2022-10-28T03:11:34.020Z,16.80
2022-10-28T03:14:00.677Z,17.60
2022-10-28T03:16:27.323Z,16.80
2022-10-28T03:18:54.172Z,16.50
2022-10-28T03:21:21.069Z,16.80
2022-10-28T03:23:47.738Z,17.20
2022-10-28T03:26:15.463Z,16.70
2022-10-28T03:28:42.122Z,16.80
2022-10-28T03:31:08.775Z,16.80
2022-10-28T03:33:35.453Z,19.10
2022-10-28T03:36:02.193Z,16.80
2022-10-28T03:38:28.870Z,16.70
2022-10-28T03:40:55.524Z,17.30
2022-10-28T03:43:22.174Z,16.70
2022-10-28T03:45:49.092Z,16.70
2022-10-28T03:48:15.784Z,16.70
2022-10-28T03:50:42.431Z,17.00
2022-10-28T03:53:09.313Z,16.80
2022-10-28T03:55:36.017Z,16.70
2022-10-28T03:58:02.956Z,16.80
2022-10-28T04:00:29.975Z,16.60
2022-10-28T04:02:56.825Z,16.60
2022-10-28T04:05:23.736Z,18.00
2022-10-28T04:07:50.679Z,16.60
2022-10-28T04:10:17.437Z,16.60
2022-10-28T04:12:44.102Z,16.50
2022-10-28T04:15:10.826Z,16.60
2022-10-28T04:17:37.518Z,16.50
2022-10-28T04:20:04.743Z,17.40
2022-10-28T04:22:31.493Z,16.50
2022-10-28T04:24:58.226Z,16.50
2022-10-28T04:27:24.923Z,17.20
2022-10-28T04:29:51.571Z,16.50
2022-10-28T04:32:18.263Z,16.50
2022-10-28T04:34:44.908Z,16.50
2022-10-28T04:37:11.601Z,16.50
2022-10-28T04:39:38.227Z,17.30
2022-10-28T04:42:04.878Z,16.50
2022-10-28T04:44:31.592Z,16.60
2022-10-28T04:46:58.237Z,16.50
2022-10-28T04:49:24.894Z,16.60
2022-10-28T04:51:51.723Z,16.50
2022-10-28T04:54:18.368Z,16.90
2022-10-28T04:56:45.023Z,17.80
2022-10-28T04:59:11.677Z,17.80
2022-10-28T05:01:38.438Z,16.50
2022-10-28T05:04:05.271Z,16.50
2022-10-28T05:06:31.960Z,16.50
2022-10-28T05:08:58.568Z,16.50
2022-10-28T05:11:25.280Z,17.80
2022-10-28T05:13:53.191Z,16.40
2022-10-28T05:16:20.268Z,16.40
2022-10-28T05:18:47.271Z,16.90
2022-10-28T05:21:14.250Z,16.50
2022-10-28T05:23:41.159Z,17.20
2022-10-28T05:26:08.143Z,16.50
2022-10-28T05:28:34.834Z,16.50
2022-10-28T05:31:01.513Z,16.50
2022-10-28T05:33:28.142Z,16.50
2022-10-28T05:35:54.795Z,16.80
2022-10-28T05:38:21.444Z,17.70
2022-10-28T05:40:48.139Z,16.50
2022-10-28T05:43:14.795Z,16.40
2022-10-28T05:45:41.434Z,16.40
2022-10-28T05:48:08.130Z,17.20
2022-10-28T05:50:34.795Z,17.20
2022-10-28T05:53:01.693Z,16.40
2022-10-28T05:55:29.526Z,16.60
2022-10-28T05:57:57.267Z,16.50
2022-10-28T06:00:25.620Z,16.40
2022-10-28T06:02:52.670Z,16.40
2022-10-28T06:05:19.886Z,17.30
2022-10-28T06:07:46.542Z,16.40
2022-10-28T06:10:13.579Z,16.30
2022-10-28T06:12:38.802Z,16.30
2022-10-28T06:15:06.150Z,18.20
2022-10-28T06:17:32.818Z,16.30
2022-10-28T06:19:59.581Z,16.30
2022-10-28T06:22:26.314Z,16.30
2022-10-28T06:24:52.932Z,16.30
2022-10-28T06:27:19.544Z,16.70
2022-10-28T06:29:46.503Z,16.30
2022-10-28T06:32:13.240Z,16.50
2022-10-28T06:34:40.454Z,17.80
2022-10-28T06:37:08.912Z,16.30
2022-10-28T06:39:37.067Z,16.30
2022-10-28T06:42:06.645Z,16.30
2022-10-28T06:44:33.334Z,16.40
2022-10-28T06:47:01.567Z,19.10
2022-10-28T06:49:29.524Z,19.00
2022-10-28T06:52:06.532Z,18.60
2022-10-28T06:54:33.440Z,18.80
2022-10-28T06:57:00.456Z,18.60
2022-10-28T06:59:27.265Z,16.30
2022-10-28T07:01:53.983Z,16.30
2022-10-28T07:04:23.743Z,17.90
2022-10-28T07:06:57.361Z,16.30
2022-10-28T07:09:46.975Z,16.30
2022-10-28T07:14:43.199Z,15.90
2022-10-28T07:17:09.914Z,16.40
2022-10-28T07:19:36.575Z,16.30
2022-10-28T07:22:03.241Z,16.30
2022-10-28T07:24:29.870Z,16.30
2022-10-28T07:26:57.867Z,16.30
2022-10-28T07:29:24.728Z,16.60
2022-10-28T07:31:54.677Z,18.20
2022-10-28T07:34:26.753Z,16.30
2022-10-28T07:36:55.086Z,17.80
2022-10-28T07:39:21.913Z,16.40
2022-10-28T07:41:48.706Z,16.40
2022-10-28T07:44:15.463Z,16.40
2022-10-28T07:46:42.200Z,17.50
2022-10-28T07:49:08.891Z,17.60
2022-10-28T07:51:35.578Z,16.40
2022-10-28T07:54:02.534Z,16.50
2022-10-28T07:56:29.184Z,16.40
2022-10-28T07:58:55.815Z,17.30
2022-10-28T08:01:22.740Z,16.40
2022-10-28T08:03:49.463Z,16.40
2022-10-28T08:06:20.882Z,16.50
2022-10-28T08:08:48.474Z,16.50
2022-10-28T08:11:18.992Z,17.80
2022-10-28T08:13:46.949Z,17.70
2022-10-28T08:16:13.752Z,18.30
2022-10-28T08:18:40.520Z,18.30
2022-10-28T08:21:08.855Z,16.60
2022-10-28T08:23:36.094Z,18.10
2022-10-28T08:26:02.971Z,16.70
2022-10-28T08:28:31.658Z,17.50
2022-10-28T08:31:10.474Z,18.60
2022-10-28T08:33:39.336Z,16.70
2022-10-28T08:36:07.273Z,16.90
2022-10-28T08:38:34.502Z,16.80
2022-10-28T08:41:35.990Z,16.80
2022-10-28T08:44:36.780Z,16.70
2022-10-28T08:47:16.385Z,16.70
2022-10-28T08:49:47.100Z,16.80
2022-10-28T08:52:25.044Z,16.80
2022-10-28T08:55:05.064Z,16.80
2022-10-28T08:57:57.156Z,16.80
2022-10-28T09:00:29.628Z,16.90
2022-10-28T09:03:11.645Z,16.80
2022-10-28T09:05:39.927Z,17.50
2022-10-28T09:08:09.177Z,16.90
2022-10-28T09:10:45.321Z,17.00
2022-10-28T09:13:28.315Z,17.00
2022-10-28T09:16:00.978Z,17.00
2022-10-28T09:18:58.154Z,17.00
2022-10-28T09:21:48.839Z,17.10
2022-10-28T09:24:25.978Z,17.10
2022-10-28T09:27:03.328Z,17.10
2022-10-28T09:29:44.580Z,17.10
2022-10-28T09:32:30.987Z,17.10
2022-10-28T09:35:08.827Z,17.20
2022-10-28T09:37:39.188Z,17.20
2022-10-28T09:40:22.750Z,17.20
2022-10-28T09:42:53.597Z,17.30
2022-10-28T09:45:23.748Z,17.30
2022-10-28T09:48:09.440Z,17.40
2022-10-28T09:50:36.283Z,17.40
2022-10-28T09:53:02.943Z,17.40
2022-10-28T09:55:30.013Z,17.40
2022-10-28T09:57:57.083Z,17.40
2022-10-28T10:00:25.216Z,17.50
2022-10-28T10:02:58.806Z,17.60
2022-10-28T10:05:26.223Z,17.60
2022-10-28T10:07:58.650Z,17.60
2022-10-28T10:10:45.758Z,17.70
2022-10-28T10:13:13.673Z,17.70
2022-10-28T10:15:48.654Z,17.70
2022-10-28T10:18:23.789Z,17.80
2022-10-28T10:20:52.657Z,17.80
2022-10-28T10:26:09.547Z,17.90
2022-10-28T10:28:47.500Z,17.90
2022-10-28T10:31:20.660Z,18.00
2022-10-28T10:33:53.021Z,18.10
2022-10-28T10:36:23.621Z,18.20
2022-10-28T10:38:55.407Z,18.20
2022-10-28T10:41:42.881Z,18.20
2022-10-28T10:44:21.514Z,18.30
2022-10-28T10:47:04.973Z,18.30
2022-10-28T10:49:34.405Z,18.40
2022-10-28T10:52:04.218Z,18.40
2022-10-28T10:54:32.759Z,18.50
2022-10-28T10:57:19.951Z,18.50
2022-10-28T10:59:48.890Z,18.60
2022-10-28T11:02:44.997Z,18.60
2022-10-28T11:05:12.153Z,18.60
2022-10-28T11:07:45.052Z,18.70
2022-10-28T11:10:26.874Z,18.80
2022-10-28T11:12:56.093Z,18.80
2022-10-28T11:15:28.318Z,18.90
2022-10-28T11:17:57.170Z,18.90
2022-10-28T11:20:38.005Z,19.00
2022-10-28T11:23:29.232Z,19.00
2022-10-28T11:25:59.109Z,19.00
2022-10-28T11:28:37.093Z,19.00
2022-10-28T11:31:29.151Z,19.10
2022-10-28T11:34:23.293Z,19.20
2022-10-28T11:37:19.257Z,19.20
2022-10-28T11:40:13.488Z,19.30
2022-10-28T11:42:43.305Z,19.30
2022-10-28T11:45:37.628Z,19.40
2022-10-28T11:48:22.697Z,19.40
2022-10-28T11:50:54.458Z,19.40
2022-10-28T11:53:45.629Z,19.50
2022-10-28T11:56:36.686Z,19.50
2022-10-28T11:59:15.438Z,19.50
2022-10-28T12:01:44.986Z,19.50
2022-10-28T12:04:14.549Z,19.60
2022-10-28T12:07:03.100Z,19.60
2022-10-28T12:09:59.379Z,19.60
2022-10-28T12:12:41.369Z,19.60
2022-10-28T12:15:26.093Z,19.60
2022-10-28T12:18:01.993Z,19.70
2022-10-28T12:20:35.842Z,19.80
2022-10-28T12:23:08.744Z,19.80
2022-10-28T12:25:39.657Z,19.80
2022-10-28T12:28:20.930Z,19.90
2022-10-28T12:30:48.959Z,19.90
2022-10-28T12:33:35.600Z,20.00
2022-10-28T12:36:08.255Z,20.10
2022-10-28T12:38:40.641Z,20.20
2022-10-28T12:41:16.092Z,20.20
2022-10-28T12:44:04.302Z,20.30
2022-10-28T12:46:57.455Z,20.40
2022-10-28T12:49:34.791Z,20.60
2022-10-28T12:52:08.331Z,20.70
2022-10-28T12:54:53.701Z,20.80
2022-10-28T12:57:22.668Z,21.00
2022-10-28T12:59:53.820Z,21.10
2022-10-28T13:02:25.998Z,21.20
2022-10-28T13:04:52.967Z,21.30
2022-10-28T13:07:25.847Z,21.40
2022-10-28T13:10:17.990Z,21.50
2022-10-28T13:12:50.676Z,21.70
2022-10-28T13:15:40.388Z,21.80
2022-10-28T13:18:15.770Z,21.90
2022-10-28T13:20:51.168Z,22.00
2022-10-28T13:23:37.442Z,22.10
2022-10-28T13:26:24.076Z,22.30
2022-10-28T13:28:54.177Z,22.40
2022-10-28T13:31:21.161Z,22.50
2022-10-28T13:33:59.574Z,22.60
2022-10-28T13:36:29.598Z,22.70
2022-10-28T13:39:02.028Z,22.80
2022-10-28T13:41:49.214Z,22.80
2022-10-28T13:44:55.488Z,22.90
2022-10-28T13:47:25.217Z,22.90
2022-10-28T13:50:10.940Z,23.00
2022-10-28T13:52:45.231Z,23.00
2022-10-28T13:55:25.873Z,23.10
2022-10-28T13:58:04.842Z,23.10
2022-10-28T14:00:31.494Z,23.20
2022-10-28T14:03:02.585Z,23.20
2022-10-28T14:05:38.339Z,23.20
2022-10-28T14:08:24.538Z,23.20
2022-10-28T14:11:01.074Z,23.30
2022-10-28T14:13:27.991Z,23.30
2022-10-28T14:16:24.725Z,23.30
2022-10-28T14:19:02.706Z,23.30
2022-10-28T14:22:01.796Z,23.40
2022-10-28T14:24:40.571Z,23.40
2022-10-28T14:27:13.938Z,23.40
2022-10-28T14:30:10.517Z,23.40
2022-10-28T14:32:43.206Z,23.40
2022-10-28T14:35:15.587Z,23.40
2022-10-28T14:38:27.798Z,23.40
2022-10-28T14:41:16.438Z,23.40
2022-10-28T14:44:07.355Z,23.40
2022-10-28T14:47:12.887Z,23.50
2022-10-28T14:49:40.316Z,23.50
2022-10-28T14:52:12.166Z,23.50
2022-10-28T14:54:47.202Z,23.40
2022-10-28T14:57:14.198Z,23.40
2022-10-28T14:59:42.994Z,23.40
2022-10-28T15:02:27.540Z,23.40
2022-10-28T15:05:12.650Z,23.40
2022-10-28T15:07:40.020Z,23.40
2022-10-28T15:10:14.315Z,23.40
2022-10-28T15:12:45.983Z,23.40
2022-10-28T15:15:20.101Z,23.40
2022-10-28T15:17:47.043Z,23.40
2022-10-28T15:20:26.593Z,23.40
2022-10-28T15:22:54.648Z,23.40
2022-10-28T15:25:22.841Z,23.40
2022-10-28T15:27:53.007Z,23.40
2022-10-28T15:30:24.946Z,23.40
2022-10-28T15:32:52.462Z,23.40
2022-10-28T15:35:28.199Z,23.30
2022-10-28T15:37:55.683Z,23.30
2022-10-28T15:40:29.140Z,23.30
2022-10-28T15:42:59.268Z,23.30
2022-10-28T15:45:31.608Z,23.20
2022-10-28T15:47:59.741Z,23.20
2022-10-28T15:50:32.198Z,23.20
2022-10-28T15:53:10.714Z,23.20
2022-10-28T15:56:02.921Z,23.10
2022-10-28T15:58:41.971Z,23.10
2022-10-28T16:01:25.280Z,23.10
2022-10-28T16:03:52.054Z,23.10
2022-10-28T16:06:33.694Z,23.00
2022-10-28T16:09:09.868Z,23.00
2022-10-28T16:11:41.399Z,23.00
2022-10-28T16:14:25.665Z,23.00
2022-10-28T16:16:52.535Z,23.00
2022-10-28T16:19:29.525Z,22.90
2022-10-28T16:21:56.278Z,22.90
2022-10-28T16:24:23.032Z,22.90
2022-10-28T16:26:49.756Z,22.90
2022-10-28T16:29:16.542Z,22.90
2022-10-28T16:31:50.684Z,22.80
2022-10-28T16:34:17.521Z,22.80
2022-10-28T16:36:44.288Z,22.80
2022-10-28T16:39:14.158Z,22.70
2022-10-28T16:41:41.056Z,22.70
2022-10-28T16:44:17.431Z,22.70
2022-10-28T16:46:44.250Z,22.70
2022-10-28T16:49:11.886Z,22.60
2022-10-28T16:51:39.147Z,22.60
2022-10-28T16:54:05.963Z,22.60
2022-10-28T16:56:32.713Z,22.50
2022-10-28T16:58:59.378Z,22.50
2022-10-28T17:01:26.254Z,22.50
2022-10-28T17:03:53.182Z,22.50
2022-10-28T17:06:19.946Z,22.40
2022-10-28T17:09:02.368Z,22.40
2022-10-28T17:13:58.019Z,22.30
2022-10-28T17:16:25.414Z,22.20
2022-10-28T17:18:52.091Z,22.20
2022-10-28T17:21:18.815Z,22.20
2022-10-28T17:23:45.516Z,22.10
2022-10-28T17:26:12.234Z,22.10
2022-10-28T17:28:38.923Z,22.10
2022-10-28T17:31:07.287Z,22.00
2022-10-28T17:33:34.256Z,22.00
2022-10-28T17:36:05.931Z,22.00
2022-10-28T17:38:32.883Z,22.00
2022-10-28T17:40:59.813Z,21.90
2022-10-28T17:43:26.643Z,21.90
2022-10-28T17:45:55.979Z,21.80
2022-10-28T17:48:22.666Z,21.80
2022-10-28T17:50:55.618Z,21.70
2022-10-28T17:53:22.309Z,21.70
2022-10-28T17:55:59.222Z,21.70
2022-10-28T17:58:26.440Z,21.60
2022-10-28T18:01:00.583Z,21.60
2022-10-28T18:03:29.959Z,21.60
2022-10-28T18:06:03.560Z,21.60
2022-10-28T18:08:34.880Z,21.50
2022-10-28T18:11:01.715Z,21.50
2022-10-28T18:13:30.133Z,21.50
2022-10-28T18:15:58.257Z,21.40
2022-10-28T18:18:27.696Z,21.40
2022-10-28T18:20:54.860Z,21.40
2022-10-28T18:23:22.568Z,21.40
2022-10-28T18:26:02.362Z,21.20
2022-10-28T18:28:33.277Z,21.30
2022-10-28T18:31:11.592Z,21.30
2022-10-28T18:33:38.719Z,21.20
2022-10-28T18:36:07.789Z,21.20
2022-10-28T18:38:34.661Z,21.10
2022-10-28T18:41:01.757Z,21.10
2022-10-28T18:43:28.593Z,21.10
2022-10-28T18:45:59.654Z,21.10
2022-10-28T18:48:26.323Z,21.10
2022-10-28T18:51:00.579Z,21.00
2022-10-28T18:53:27.602Z,21.00
2022-10-28T18:56:00.271Z,20.90
2022-10-28T18:58:27.539Z,20.90
2022-10-28T19:01:02.358Z,20.80
2022-10-28T19:03:29.028Z,20.80
2022-10-28T19:06:01.429Z,20.80
2022-10-28T19:08:28.134Z,20.80
2022-10-28T19:10:58.576Z,20.70
2022-10-28T19:13:25.281Z,20.70
2022-10-28T19:15:52.226Z,20.70
2022-10-28T19:18:19.458Z,20.60
2022-10-28T19:20:46.552Z,20.60
2022-10-28T19:23:13.382Z,20.60
2022-10-28T19:39:03.277Z,20.30
2022-10-28T19:41:30.493Z,20.00
2022-10-28T19:43:59.664Z,20.20
2022-10-28T19:46:28.049Z,20.20
2022-10-28T19:48:56.740Z,20.20
2022-10-28T19:51:27.205Z,20.10
2022-10-28T19:53:58.835Z,20.10
2022-10-28T19:56:26.493Z,20.10
2022-10-28T19:58:55.427Z,20.10
2022-10-28T20:01:23.880Z,20.00
2022-10-28T20:03:51.758Z,20.00
2022-10-28T20:06:20.268Z,20.00
2022-10-28T20:08:48.092Z,19.90
2022-10-28T20:11:25.786Z,19.90
2022-10-28T20:14:08.941Z,19.90
2022-10-28T20:16:36.172Z,19.80
2022-10-28T20:19:03.292Z,19.90
2022-10-28T20:21:31.533Z,19.80
2022-10-28T20:23:58.884Z,19.80
2022-10-28T20:26:30.565Z,19.80
2022-10-28T20:28:57.952Z,19.70
2022-10-28T20:31:27.503Z,19.70
2022-10-28T20:34:03.605Z,19.70
2022-10-28T20:36:32.428Z,19.70
2022-10-28T20:39:01.063Z,19.70
2022-10-28T20:41:29.997Z,19.70
2022-10-28T20:43:56.966Z,19.60
2022-10-28T20:46:24.488Z,19.60
2022-10-28T20:48:54.096Z,19.60
2022-10-28T20:51:22.067Z,19.60
2022-10-28T20:53:48.970Z,19.50
2022-10-28T20:56:17.663Z,19.50
2022-10-28T20:58:44.632Z,19.50
2022-10-28T21:01:21.671Z,19.40
2022-10-28T21:03:49.199Z,19.40
2022-10-28T21:06:17.142Z,19.40
2022-10-28T21:08:43.948Z,19.40
2022-10-28T21:11:15.431Z,19.30
2022-10-28T21:13:42.676Z,19.30
2022-10-28T21:16:11.297Z,19.20
2022-10-28T21:18:39.116Z,19.20
2022-10-28T21:21:06.406Z,19.10
2022-10-28T21:23:33.227Z,19.10
2022-10-28T21:26:02.019Z,19.10
2022-10-28T21:28:30.097Z,19.10
2022-10-28T21:31:26.102Z,19.10
2022-10-28T21:33:53.531Z,19.00
2022-10-28T21:36:21.889Z,18.90
2022-10-28T21:38:48.610Z,18.90
2022-10-28T21:41:17.477Z,18.90
2022-10-28T21:43:48.053Z,18.90
2022-10-28T21:46:15.951Z,18.80
2022-10-28T21:48:43.065Z,18.80
2022-10-28T21:51:14.393Z,18.80
2022-10-28T21:53:42.558Z,18.80
2022-10-28T21:56:16.706Z,18.70
2022-10-28T21:58:44.682Z,18.70
2022-10-28T22:01:13.932Z,18.70
2022-10-28T22:03:40.957Z,18.70
2022-10-28T22:06:07.912Z,18.60
2022-10-28T22:08:34.877Z,18.60
2022-10-28T22:11:18.895Z,18.60
2022-10-28T22:13:45.752Z,18.50
2022-10-28T22:16:14.808Z,18.50
2022-10-28T22:18:42.197Z,18.50
2022-10-28T22:21:16.119Z,18.50
2022-10-28T22:23:43.329Z,18.50
2022-10-28T22:26:16.010Z,18.50
2022-10-28T22:28:42.927Z,18.50
2022-10-28T22:31:12.346Z,18.40
2022-10-28T22:33:39.488Z,18.40
2022-10-28T22:36:17.981Z,18.40
2022-10-28T22:38:44.894Z,18.40
2022-10-28T22:41:15.773Z,18.40
2022-10-28T22:43:43.827Z,18.30
2022-10-28T22:46:11.178Z,18.30
2022-10-28T22:48:37.967Z,18.30
2022-10-28T22:51:05.082Z,18.30
2022-10-28T22:53:31.940Z,18.20
2022-10-28T22:55:58.763Z,18.20
2022-10-28T22:58:27.539Z,18.20
2022-10-28T23:01:04.220Z,18.20
2022-10-28T23:03:36.050Z,18.10
2022-10-28T23:06:02.860Z,18.20
2022-10-28T23:08:29.559Z,18.10
2022-10-28T23:10:56.285Z,18.10
2022-10-28T23:13:22.952Z,18.10
2022-10-28T23:15:49.649Z,18.10
2022-10-28T23:18:16.318Z,18.00
2022-10-28T23:20:43.013Z,18.00
2022-10-28T23:23:09.693Z,18.10
2022-10-28T23:25:36.421Z,18.00
2022-10-28T23:28:06.044Z,17.90
2022-10-28T23:30:32.993Z,18.00
2022-10-28T23:32:59.726Z,17.90
2022-10-28T23:35:26.553Z,17.90
2022-10-28T23:37:53.663Z,17.90
2022-10-28T23:40:20.693Z,17.80
2022-10-28T23:42:47.418Z,17.80
2022-10-28T23:45:14.237Z,17.80
2022-10-28T23:47:40.985Z,17.80
2022-10-28T23:50:10.937Z,17.70
2022-10-28T23:52:37.925Z,17.70
2022-10-28T23:55:07.112Z,17.70
2022-10-28T23:57:33.825Z,17.70
